createdAt,value
2018-06-05T00:00:16.399Z,1011.76
2018-06-05T00:01:26.395Z,1011.81
2018-06-05T00:02:16.729Z,1011.8
2018-06-05T00:03:16.081Z,1011.77
2018-06-05T00:04:16.220Z,1011.78
2018-06-05T00:05:16.215Z,1011.77
2018-06-05T00:06:16.007Z,1011.81
2018-06-05T00:07:16.193Z,1011.78
2018-06-05T00:08:16.055Z,1011.81
2018-06-05T00:09:15.980Z,1011.85
2018-06-05T00:10:16.167Z,1011.84
2018-06-05T00:11:16.333Z,1011.79
2018-06-05T00:12:16.278Z,1011.86
2018-06-05T00:13:16.130Z,1011.84
2018-06-05T00:14:16.012Z,1011.82
2018-06-05T00:15:16.172Z,1011.82
2018-06-05T00:16:16.018Z,1011.82
2018-06-05T00:17:16.005Z,1011.81
2018-06-05T00:18:16.094Z,1011.8
2018-06-05T00:19:16.186Z,1011.86
2018-06-05T00:20:16.504Z,1011.79
2018-06-05T00:21:16.177Z,1011.79
2018-06-05T00:22:16.342Z,1011.82
2018-06-05T00:23:16.070Z,1011.89
2018-06-05T00:24:16.192Z,1011.84
2018-06-05T00:25:16.098Z,1011.83
2018-06-05T00:26:16.324Z,1011.85
2018-06-05T00:27:16.178Z,1011.86
2018-06-05T00:28:16.384Z,1011.84
2018-06-05T00:29:16.293Z,1011.86
2018-06-05T00:30:16.034Z,1011.84
2018-06-05T00:31:15.970Z,1011.85
2018-06-05T00:32:16.560Z,1011.84
2018-06-05T00:33:16.348Z,1011.93
2018-06-05T00:34:15.988Z,1011.9
2018-06-05T00:35:15.915Z,1011.9
2018-06-05T00:36:16.207Z,1011.92
2018-06-05T00:37:16.270Z,1011.86
2018-06-05T00:38:16.042Z,1011.92
2018-06-05T00:39:16.330Z,1011.9
2018-06-05T00:40:16.028Z,1011.9
2018-06-05T00:41:16.018Z,1011.85
2018-06-05T00:42:16.403Z,1011.83
2018-06-05T00:43:16.180Z,1011.84
2018-06-05T00:44:16.011Z,1011.82
2018-06-05T00:45:16.200Z,1011.88
2018-06-05T00:46:16.142Z,1011.94
2018-06-05T00:47:16.222Z,1011.89
2018-06-05T00:48:16.055Z,1011.9
2018-06-05T00:49:16.186Z,1011.94
2018-06-05T00:50:16.091Z,1011.98
2018-06-05T00:51:16.127Z,1011.98
2018-06-05T00:52:16.375Z,1011.99
2018-06-05T00:53:15.959Z,1011.99
2018-06-05T00:54:16.171Z,1011.98
2018-06-05T00:55:16.004Z,1011.91
2018-06-05T00:56:16.191Z,1011.91
2018-06-05T00:57:16.311Z,1011.9
2018-06-05T00:58:16.258Z,1011.84
2018-06-05T00:59:16.000Z,1011.86
2018-06-05T01:00:16.185Z,1011.91
2018-06-05T01:01:16.134Z,1011.94
2018-06-05T01:02:16.056Z,1011.94
2018-06-05T01:03:16.195Z,1011.94
2018-06-05T01:04:16.011Z,1011.98
2018-06-05T01:05:16.178Z,1012.04
2018-06-05T01:06:16.199Z,1011.98
2018-06-05T01:07:16.157Z,1011.98
2018-06-05T01:08:16.032Z,1011.97
2018-06-05T01:09:16.472Z,1011.97
2018-06-05T01:10:16.101Z,1011.98
2018-06-05T01:11:16.049Z,1012.02
2018-06-05T01:12:16.019Z,1012.01
2018-06-05T01:13:16.430Z,1011.99
2018-06-05T01:14:15.949Z,1012.02
2018-06-05T01:15:16.057Z,1012.02
2018-06-05T01:16:16.055Z,1011.99
2018-06-05T01:17:16.150Z,1011.98
2018-06-05T01:18:15.933Z,1012
2018-06-05T01:19:16.198Z,1012.01
2018-06-05T01:20:16.394Z,1012.06
2018-06-05T01:21:15.989Z,1012.06
2018-06-05T01:22:15.979Z,1012.03
2018-06-05T01:23:15.963Z,1012.05
2018-06-05T01:24:16.065Z,1012.05
2018-06-05T01:25:16.105Z,1012.1
2018-06-05T01:26:15.970Z,1012.09
2018-06-05T01:27:16.211Z,1012.04
2018-06-05T01:28:16.020Z,1012.02
2018-06-05T01:29:16.163Z,1012.04
2018-06-05T01:30:16.186Z,1012.05
2018-06-05T01:31:16.266Z,1012.08
2018-06-05T01:32:16.290Z,1012.09
2018-06-05T01:33:18.784Z,1012.08
2018-06-05T01:34:16.471Z,1012.11
2018-06-05T01:35:16.154Z,1012.12
2018-06-05T01:36:16.120Z,1012.05
2018-06-05T01:37:16.198Z,1012.11
2018-06-05T01:38:16.446Z,1012.17
2018-06-05T01:39:16.117Z,1012.14
2018-06-05T01:40:16.405Z,1012.13
2018-06-05T01:41:18.767Z,1012.15
2018-06-05T01:42:18.541Z,1012.14
2018-06-05T01:43:16.623Z,1012.15
2018-06-05T01:44:18.766Z,1012.18
2018-06-05T01:45:16.534Z,1012.15
2018-06-05T01:46:16.215Z,1012.11
2018-06-05T01:47:16.201Z,1012.11
2018-06-05T01:48:16.380Z,1012.18
2018-06-05T01:49:16.214Z,1012.22
2018-06-05T01:50:16.283Z,1012.18
2018-06-05T01:51:26.025Z,1012.18
2018-06-05T01:52:16.443Z,1012.19
2018-06-05T01:53:16.379Z,1012.18
2018-06-05T01:54:16.179Z,1012.16
2018-06-05T01:55:16.172Z,1012.13
2018-06-05T01:56:16.268Z,1012.18
2018-06-05T01:57:16.421Z,1012.19
2018-06-05T01:58:16.137Z,1012.18
2018-06-05T01:59:16.293Z,1012.18
2018-06-05T02:00:16.193Z,1012.19
2018-06-05T02:01:16.141Z,1012.2
2018-06-05T02:02:19.273Z,1012.19
2018-06-05T02:03:18.404Z,1012.2
2018-06-05T02:04:26.172Z,1012.22
2018-06-05T02:05:18.449Z,1012.18
2018-06-05T02:06:16.144Z,1012.16
2018-06-05T02:07:16.292Z,1012.18
2018-06-05T02:08:16.138Z,1012.15
2018-06-05T02:09:16.959Z,1012.19
2018-06-05T02:10:16.295Z,1012.13
2018-06-05T02:11:18.288Z,1012.2
2018-06-05T02:12:16.254Z,1012.17
2018-06-05T02:13:16.354Z,1012.16
2018-06-05T02:14:16.439Z,1012.14
2018-06-05T02:15:16.259Z,1012.16
2018-06-05T02:16:16.366Z,1012.19
2018-06-05T02:17:16.260Z,1012.15
2018-06-05T02:18:16.359Z,1012.23
2018-06-05T02:19:16.196Z,1012.19
2018-06-05T02:20:16.276Z,1012.2
2018-06-05T02:21:16.398Z,1012.19
2018-06-05T02:22:16.240Z,1012.19
2018-06-05T02:23:18.120Z,1012.22
2018-06-05T02:24:16.309Z,1012.22
2018-06-05T02:25:18.191Z,1012.23
2018-06-05T02:26:18.729Z,1012.24
2018-06-05T02:27:16.250Z,1012.24
2018-06-05T02:28:16.282Z,1012.26
2018-06-05T02:29:16.023Z,1012.23
2018-06-05T02:30:16.139Z,1012.27
2018-06-05T02:31:15.923Z,1012.28
2018-06-05T02:32:16.141Z,1012.3
2018-06-05T02:33:16.125Z,1012.31
2018-06-05T02:34:16.405Z,1012.25
2018-06-05T02:35:16.216Z,1012.32
2018-06-05T02:36:16.336Z,1012.32
2018-06-05T02:37:16.009Z,1012.27
2018-06-05T02:38:16.024Z,1012.27
2018-06-05T02:39:16.116Z,1012.3
2018-06-05T02:40:15.963Z,1012.3
2018-06-05T02:41:16.178Z,1012.28
2018-06-05T02:42:16.158Z,1012.28
2018-06-05T02:43:16.280Z,1012.24
2018-06-05T02:44:16.093Z,1012.26
2018-06-05T02:45:16.213Z,1012.29
2018-06-05T02:46:16.007Z,1012.32
2018-06-05T02:47:16.046Z,1012.27
2018-06-05T02:48:16.214Z,1012.29
2018-06-05T02:49:16.330Z,1012.3
2018-06-05T02:50:15.968Z,1012.33
2018-06-05T02:51:15.917Z,1012.32
2018-06-05T02:52:16.005Z,1012.32
2018-06-05T02:53:16.248Z,1012.34
2018-06-05T02:54:16.158Z,1012.33
2018-06-05T02:55:16.167Z,1012.36
2018-06-05T02:56:16.212Z,1012.39
2018-06-05T02:57:15.963Z,1012.36
2018-06-05T02:58:15.950Z,1012.4
2018-06-05T02:59:16.159Z,1012.43
2018-06-05T03:00:16.507Z,1012.41
2018-06-05T03:01:15.980Z,1012.37
2018-06-05T03:02:15.998Z,1012.41
2018-06-05T03:03:16.113Z,1012.43
2018-06-05T03:04:16.166Z,1012.43
2018-06-05T03:05:16.423Z,1012.43
2018-06-05T03:06:15.953Z,1012.44
2018-06-05T03:07:16.268Z,1012.47
2018-06-05T03:08:16.138Z,1012.45
2018-06-05T03:09:16.033Z,1012.47
2018-06-05T03:10:16.148Z,1012.46
2018-06-05T03:11:16.535Z,1012.46
2018-06-05T03:12:16.126Z,1012.5
2018-06-05T03:13:15.917Z,1012.52
2018-06-05T03:14:16.292Z,1012.47
2018-06-05T03:15:16.534Z,1012.5
2018-06-05T03:16:16.020Z,1012.47
2018-06-05T03:17:16.207Z,1012.47
2018-06-05T03:18:16.014Z,1012.5
2018-06-05T03:19:15.938Z,1012.53
2018-06-05T03:20:16.120Z,1012.56
2018-06-05T03:21:16.379Z,1012.51
2018-06-05T03:22:16.154Z,1012.6
2018-06-05T03:23:16.158Z,1012.55
2018-06-05T03:24:16.351Z,1012.57
2018-06-05T03:25:15.914Z,1012.56
2018-06-05T03:26:16.039Z,1012.56
2018-06-05T03:27:16.024Z,1012.56
2018-06-05T03:28:16.245Z,1012.6
2018-06-05T03:29:16.091Z,1012.56
2018-06-05T03:30:15.985Z,1012.56
2018-06-05T03:31:16.152Z,1012.55
2018-06-05T03:32:16.149Z,1012.58
2018-06-05T03:33:15.928Z,1012.54
2018-06-05T03:34:16.115Z,1012.56
2018-06-05T03:35:16.006Z,1012.54
2018-06-05T03:36:16.395Z,1012.56
2018-06-05T03:37:16.155Z,1012.6
2018-06-05T03:38:16.020Z,1012.57
2018-06-05T03:39:16.215Z,1012.58
2018-06-05T03:40:16.046Z,1012.61
2018-06-05T03:41:16.155Z,1012.59
2018-06-05T03:42:16.119Z,1012.6
2018-06-05T03:43:16.090Z,1012.61
2018-06-05T03:44:16.140Z,1012.61
2018-06-05T03:45:16.041Z,1012.64
2018-06-05T03:46:16.202Z,1012.66
2018-06-05T03:47:15.920Z,1012.65
2018-06-05T03:48:16.118Z,1012.66
2018-06-05T03:49:16.574Z,1012.67
2018-06-05T03:50:16.127Z,1012.68
2018-06-05T03:51:16.292Z,1012.66
2018-06-05T03:52:16.306Z,1012.74
2018-06-05T03:53:15.907Z,1012.77
2018-06-05T03:54:15.945Z,1012.76
2018-06-05T03:55:16.142Z,1012.76
2018-06-05T03:56:16.097Z,1012.83
2018-06-05T03:57:16.239Z,1012.81
2018-06-05T03:58:16.058Z,1012.79
2018-06-05T03:59:16.277Z,1012.79
2018-06-05T04:00:16.164Z,1012.78
2018-06-05T04:01:16.064Z,1012.78
2018-06-05T04:02:16.409Z,1012.83
2018-06-05T04:03:16.212Z,1012.82
2018-06-05T04:04:16.005Z,1012.77
2018-06-05T04:05:16.468Z,1012.77
2018-06-05T04:06:16.309Z,1012.72
2018-06-05T04:07:16.546Z,1012.78
2018-06-05T04:08:16.236Z,1012.74
2018-06-05T04:09:15.936Z,1012.72
2018-06-05T04:10:16.162Z,1012.67
2018-06-05T04:11:16.170Z,1012.66
2018-06-05T04:12:16.061Z,1012.68
2018-06-05T04:13:16.522Z,1012.7
2018-06-05T04:14:16.108Z,1012.7
2018-06-05T04:15:15.819Z,1012.71
2018-06-05T04:16:16.129Z,1012.74
2018-06-05T04:17:16.035Z,1012.74
2018-06-05T04:18:16.030Z,1012.75
2018-06-05T04:19:16.099Z,1012.71
2018-06-05T04:20:15.952Z,1012.74
2018-06-05T04:21:16.293Z,1012.79
2018-06-05T04:22:16.299Z,1012.79
2018-06-05T04:23:16.064Z,1012.77
2018-06-05T04:24:16.348Z,1012.74
2018-06-05T04:25:15.950Z,1012.71
2018-06-05T04:26:15.910Z,1012.71
2018-06-05T04:27:15.904Z,1012.71
2018-06-05T04:28:16.176Z,1012.7
2018-06-05T04:29:16.136Z,1012.76
2018-06-05T04:30:16.032Z,1012.78
2018-06-05T04:31:16.041Z,1012.78
2018-06-05T04:32:16.058Z,1012.79
2018-06-05T04:33:15.976Z,1012.78
2018-06-05T04:34:16.040Z,1012.75
2018-06-05T04:35:15.918Z,1012.81
2018-06-05T04:36:16.052Z,1012.78
2018-06-05T04:37:16.024Z,1012.74
2018-06-05T04:38:16.066Z,1012.74
2018-06-05T04:39:16.035Z,1012.79
2018-06-05T04:40:16.177Z,1012.76
2018-06-05T04:41:15.990Z,1012.83
2018-06-05T04:42:15.917Z,1012.77
2018-06-05T04:43:16.100Z,1012.83
2018-06-05T04:44:16.074Z,1012.84
2018-06-05T04:45:16.232Z,1012.88
2018-06-05T04:46:15.982Z,1012.84
2018-06-05T04:47:16.096Z,1012.84
2018-06-05T04:48:15.996Z,1012.85
2018-06-05T04:49:16.045Z,1012.85
2018-06-05T04:50:16.124Z,1012.88
2018-06-05T04:51:16.382Z,1012.9
2018-06-05T04:52:16.025Z,1012.88
2018-06-05T04:53:16.615Z,1012.9
2018-06-05T04:54:16.448Z,1012.86
2018-06-05T04:55:16.119Z,1012.86
2018-06-05T04:56:15.934Z,1012.95
2018-06-05T04:57:16.150Z,1012.95
2018-06-05T04:58:16.052Z,1012.91
2018-06-05T04:59:16.166Z,1012.97
2018-06-05T05:00:16.020Z,1013
2018-06-05T05:01:16.048Z,1012.99
2018-06-05T05:02:15.922Z,1012.97
2018-06-05T05:03:16.034Z,1012.98
2018-06-05T05:04:16.019Z,1012.99
2018-06-05T05:05:16.067Z,1012.98
2018-06-05T05:06:15.909Z,1012.97
2018-06-05T05:07:15.933Z,1012.96
2018-06-05T05:08:15.997Z,1013
2018-06-05T05:09:16.037Z,1013
2018-06-05T05:10:16.155Z,1013.03
2018-06-05T05:11:16.282Z,1013.03
2018-06-05T05:12:16.060Z,1013.04
2018-06-05T05:13:16.061Z,1013.02
2018-06-05T05:14:15.983Z,1013.03
2018-06-05T05:15:16.077Z,1013.02
2018-06-05T05:16:16.472Z,1013.01
2018-06-05T05:17:16.020Z,1013.04
2018-06-05T05:18:15.918Z,1013.01
2018-06-05T05:19:15.891Z,1013.03
2018-06-05T05:20:16.050Z,1013.01
2018-06-05T05:21:15.995Z,1013.04
2018-06-05T05:22:15.880Z,1013.05
2018-06-05T05:23:16.202Z,1013.04
2018-06-05T05:24:16.231Z,1013.01
2018-06-05T05:25:16.074Z,1013.04
2018-06-05T05:26:16.471Z,1013.08
2018-06-05T05:27:16.064Z,1013.06
2018-06-05T05:28:16.166Z,1013.05
2018-06-05T05:29:16.187Z,1013.01
2018-06-05T05:30:16.114Z,1013.11
2018-06-05T05:31:16.393Z,1013.09
2018-06-05T05:32:16.400Z,1013.04
2018-06-05T05:33:15.936Z,1013.09
2018-06-05T05:34:16.130Z,1013.09
2018-06-05T05:35:16.252Z,1013.09
2018-06-05T05:36:16.049Z,1013.1
2018-06-05T05:37:16.193Z,1013.15
2018-06-05T05:38:16.125Z,1013.11
2018-06-05T05:39:16.549Z,1013.15
2018-06-05T05:40:16.154Z,1013.17
2018-06-05T05:41:16.053Z,1013.16
2018-06-05T05:42:15.978Z,1013.17
2018-06-05T05:43:16.070Z,1013.17
2018-06-05T05:44:16.129Z,1013.22
2018-06-05T05:45:16.180Z,1013.23
2018-06-05T05:46:15.878Z,1013.21
2018-06-05T05:47:16.146Z,1013.21
2018-06-05T05:48:15.956Z,1013.24
2018-06-05T05:49:16.129Z,1013.27
2018-06-05T05:50:16.043Z,1013.27
2018-06-05T05:51:16.462Z,1013.27
2018-06-05T05:52:15.879Z,1013.27
2018-06-05T05:53:16.062Z,1013.28
2018-06-05T05:54:15.964Z,1013.3
2018-06-05T05:55:16.025Z,1013.28
2018-06-05T05:56:15.978Z,1013.3
2018-06-05T05:57:15.896Z,1013.3
2018-06-05T05:58:16.080Z,1013.3
2018-06-05T05:59:16.263Z,1013.31
2018-06-05T06:00:16.055Z,1013.28
2018-06-05T06:01:16.097Z,1013.28
2018-06-05T06:02:16.042Z,1013.31
2018-06-05T06:03:16.252Z,1013.32
2018-06-05T06:04:16.083Z,1013.33
2018-06-05T06:05:16.318Z,1013.31
2018-06-05T06:06:15.851Z,1013.31
2018-06-05T06:07:16.219Z,1013.33
2018-06-05T06:08:16.526Z,1013.34
2018-06-05T06:09:15.914Z,1013.34
2018-06-05T06:10:16.090Z,1013.37
2018-06-05T06:11:15.948Z,1013.36
2018-06-05T06:12:16.096Z,1013.32
2018-06-05T06:13:16.091Z,1013.38
2018-06-05T06:14:15.933Z,1013.32
2018-06-05T06:15:15.998Z,1013.32
2018-06-05T06:16:15.976Z,1013.38
2018-06-05T06:17:15.876Z,1013.36
2018-06-05T06:18:16.017Z,1013.35
2018-06-05T06:19:16.220Z,1013.31
2018-06-05T06:20:16.118Z,1013.31
2018-06-05T06:21:16.261Z,1013.33
2018-06-05T06:22:16.147Z,1013.32
2018-06-05T06:23:15.914Z,1013.32
2018-06-05T06:24:15.948Z,1013.31
2018-06-05T06:25:16.309Z,1013.32
2018-06-05T06:26:16.053Z,1013.35
2018-06-05T06:27:16.235Z,1013.34
2018-06-05T06:28:16.212Z,1013.31
2018-06-05T06:29:16.097Z,1013.33
2018-06-05T06:30:15.994Z,1013.32
2018-06-05T06:31:16.137Z,1013.31
2018-06-05T06:32:16.139Z,1013.32
2018-06-05T06:33:16.088Z,1013.28
2018-06-05T06:34:16.203Z,1013.26
2018-06-05T06:35:16.441Z,1013.3
2018-06-05T06:36:15.878Z,1013.32
2018-06-05T06:37:16.025Z,1013.32
2018-06-05T06:38:16.050Z,1013.28
2018-06-05T06:39:15.916Z,1013.32
2018-06-05T06:40:16.017Z,1013.29
2018-06-05T06:41:16.716Z,1013.27
2018-06-05T06:42:16.159Z,1013.25
2018-06-05T06:43:16.082Z,1013.33
2018-06-05T06:44:16.157Z,1013.28
2018-06-05T06:45:15.924Z,1013.28
2018-06-05T06:46:15.891Z,1013.28
2018-06-05T06:47:15.893Z,1013.28
2018-06-05T06:48:15.986Z,1013.28
2018-06-05T06:49:16.072Z,1013.31
2018-06-05T06:50:16.088Z,1013.28
2018-06-05T06:51:16.114Z,1013.28
2018-06-05T06:52:16.322Z,1013.24
2018-06-05T06:53:15.901Z,1013.28
2018-06-05T06:54:15.921Z,1013.29
2018-06-05T06:55:15.964Z,1013.31
2018-06-05T06:56:16.049Z,1013.28
2018-06-05T06:57:16.047Z,1013.31
2018-06-05T06:58:16.140Z,1013.31
2018-06-05T06:59:16.403Z,1013.33
2018-06-05T07:00:16.436Z,1013.33
2018-06-05T07:01:15.861Z,1013.34
2018-06-05T07:02:16.039Z,1013.32
2018-06-05T07:03:15.992Z,1013.34
2018-06-05T07:04:16.124Z,1013.28
2018-06-05T07:05:16.110Z,1013.33
2018-06-05T07:06:26.398Z,1013.36
2018-06-05T07:07:15.883Z,1013.31
2018-06-05T07:08:16.034Z,1013.32
2018-06-05T07:09:15.962Z,1013.34
2018-06-05T07:10:15.997Z,1013.35
2018-06-05T07:11:15.929Z,1013.34
2018-06-05T07:12:16.233Z,1013.36
2018-06-05T07:13:16.046Z,1013.38
2018-06-05T07:14:16.186Z,1013.36
2018-06-05T07:15:16.004Z,1013.36
2018-06-05T07:16:16.153Z,1013.34
2018-06-05T07:17:15.907Z,1013.36
2018-06-05T07:18:16.600Z,1013.4
2018-06-05T07:19:15.996Z,1013.36
2018-06-05T07:20:16.065Z,1013.35
2018-06-05T07:21:15.978Z,1013.35
2018-06-05T07:22:15.915Z,1013.36
2018-06-05T07:23:16.163Z,1013.37
2018-06-05T07:24:16.149Z,1013.35
2018-06-05T07:25:15.958Z,1013.37
2018-06-05T07:26:16.157Z,1013.38
2018-06-05T07:27:16.218Z,1013.36
2018-06-05T07:28:15.953Z,1013.38
2018-06-05T07:29:16.372Z,1013.36
2018-06-05T07:30:16.856Z,1013.4
2018-06-05T07:31:15.884Z,1013.32
2018-06-05T07:32:15.988Z,1013.35
2018-06-05T07:33:15.848Z,1013.39
2018-06-05T07:34:15.955Z,1013.36
2018-06-05T07:35:16.226Z,1013.34
2018-06-05T07:36:16.103Z,1013.36
2018-06-05T07:37:16.244Z,1013.38
2018-06-05T07:38:16.502Z,1013.37
2018-06-05T07:39:16.102Z,1013.31
2018-06-05T07:40:15.848Z,1013.31
2018-06-05T07:41:15.965Z,1013.38
2018-06-05T07:42:16.317Z,1013.31
2018-06-05T07:43:16.405Z,1013.32
2018-06-05T07:44:15.999Z,1013.33
2018-06-05T07:45:15.985Z,1013.3
2018-06-05T07:46:16.110Z,1013.25
2018-06-05T07:47:16.008Z,1013.32
2018-06-05T07:48:16.112Z,1013.29
2018-06-05T07:49:16.025Z,1013.31
2018-06-05T07:50:16.079Z,1013.26
2018-06-05T07:51:15.859Z,1013.3
2018-06-05T07:52:15.967Z,1013.35
2018-06-05T07:53:16.052Z,1013.36
2018-06-05T07:54:16.092Z,1013.33
2018-06-05T07:55:16.178Z,1013.32
2018-06-05T07:56:15.948Z,1013.28
2018-06-05T07:57:16.201Z,1013.29
2018-06-05T07:58:15.937Z,1013.29
2018-06-05T07:59:16.002Z,1013.28
2018-06-05T08:00:16.061Z,1013.3
2018-06-05T08:01:16.006Z,1013.28
2018-06-05T08:02:15.786Z,1013.29
2018-06-05T08:03:16.045Z,1013.28
2018-06-05T08:04:16.072Z,1013.28
2018-06-05T08:05:16.486Z,1013.27
2018-06-05T08:06:16.527Z,1013.27
2018-06-05T08:07:15.985Z,1013.24
2018-06-05T08:08:16.049Z,1013.27
2018-06-05T08:09:16.042Z,1013.27
2018-06-05T08:10:16.114Z,1013.27
2018-06-05T08:11:15.828Z,1013.28
2018-06-05T08:12:16.075Z,1013.27
2018-06-05T08:13:16.051Z,1013.26
2018-06-05T08:14:16.048Z,1013.26
2018-06-05T08:15:16.126Z,1013.23
2018-06-05T08:16:15.941Z,1013.25
2018-06-05T08:17:16.152Z,1013.25
2018-06-05T08:18:16.259Z,1013.21
2018-06-05T08:19:16.032Z,1013.24
2018-06-05T08:20:15.968Z,1013.25
2018-06-05T08:21:16.201Z,1013.26
2018-06-05T08:22:15.959Z,1013.27
2018-06-05T08:23:15.936Z,1013.26
2018-06-05T08:24:15.918Z,1013.24
2018-06-05T08:25:16.100Z,1013.29
2018-06-05T08:26:15.924Z,1013.29
2018-06-05T08:27:16.034Z,1013.24
2018-06-05T08:28:15.968Z,1013.23
2018-06-05T08:29:16.007Z,1013.22
2018-06-05T08:30:16.187Z,1013.21
2018-06-05T08:31:16.010Z,1013.22
2018-06-05T08:32:16.076Z,1013.24
2018-06-05T08:33:26.029Z,1013.21
2018-06-05T08:34:18.708Z,1013.25
2018-06-05T08:35:16.142Z,1013.19
2018-06-05T08:36:16.167Z,1013.18
2018-06-05T08:37:15.977Z,1013.16
2018-06-05T08:38:15.878Z,1013.2
2018-06-05T08:39:16.093Z,1013.22
2018-06-05T08:40:16.109Z,1013.22
2018-06-05T08:41:16.039Z,1013.27
2018-06-05T08:42:16.475Z,1013.22
2018-06-05T08:43:15.844Z,1013.21
2018-06-05T08:44:16.335Z,1013.22
2018-06-05T08:45:16.053Z,1013.22
2018-06-05T08:46:16.074Z,1013.2
2018-06-05T08:47:15.894Z,1013.24
2018-06-05T08:48:16.145Z,1013.2
2018-06-05T08:49:16.129Z,1013.17
2018-06-05T08:50:16.060Z,1013.18
2018-06-05T08:51:16.254Z,1013.22
2018-06-05T08:52:15.848Z,1013.19
2018-06-05T08:53:16.049Z,1013.2
2018-06-05T08:54:16.169Z,1013.21
2018-06-05T08:55:16.087Z,1013.16
2018-06-05T08:56:16.012Z,1013.2
2018-06-05T08:57:16.029Z,1013.22
2018-06-05T08:58:16.015Z,1013.23
2018-06-05T08:59:15.982Z,1013.22
2018-06-05T09:00:15.925Z,1013.23
2018-06-05T09:01:16.144Z,1013.28
2018-06-05T09:02:26.493Z,1013.25
2018-06-05T09:03:16.328Z,1013.23
2018-06-05T09:04:16.296Z,1013.27
2018-06-05T09:05:16.418Z,1013.23
2018-06-05T09:06:16.206Z,1013.25
2018-06-05T09:07:16.496Z,1013.21
2018-06-05T09:08:15.934Z,1013.24
2018-06-05T09:09:15.884Z,1013.24
2018-06-05T09:10:15.968Z,1013.27
2018-06-05T09:11:15.908Z,1013.24
2018-06-05T09:12:15.803Z,1013.21
2018-06-05T09:13:15.968Z,1013.2
2018-06-05T09:14:16.085Z,1013.2
2018-06-05T09:15:16.050Z,1013.21
2018-06-05T09:16:16.197Z,1013.16
2018-06-05T09:17:15.997Z,1013.19
2018-06-05T09:18:41.324Z,1013.21
2018-06-05T09:19:16.166Z,1013.18
2018-06-05T09:20:15.961Z,1013.17
2018-06-05T09:21:15.925Z,1013.15
2018-06-05T09:22:16.103Z,1013.17
2018-06-05T09:23:15.864Z,1013.17
2018-06-05T09:24:16.135Z,1013.18
2018-06-05T09:25:16.040Z,1013.22
2018-06-05T09:26:16.065Z,1013.16
2018-06-05T09:27:15.941Z,1013.18
2018-06-05T09:28:16.250Z,1013.18
2018-06-05T09:29:15.950Z,1013.12
2018-06-05T09:30:16.117Z,1013.18
2018-06-05T09:31:15.960Z,1013.18
2018-06-05T09:32:15.874Z,1013.18
2018-06-05T09:33:15.930Z,1013.16
2018-06-05T09:34:16.274Z,1013.14
2018-06-05T09:35:15.783Z,1013.14
2018-06-05T09:36:15.986Z,1013.14
2018-06-05T09:37:16.169Z,1013.12
2018-06-05T09:38:16.281Z,1013.16
2018-06-05T09:39:15.907Z,1013.12
2018-06-05T09:40:15.830Z,1013.12
2018-06-05T09:41:16.210Z,1013.12
2018-06-05T09:42:16.044Z,1013.16
2018-06-05T09:43:16.011Z,1013.14
2018-06-05T09:44:16.070Z,1013.14
2018-06-05T09:45:15.959Z,1013.19
2018-06-05T09:46:16.013Z,1013.1
2018-06-05T09:47:16.194Z,1013.13
2018-06-05T09:48:16.043Z,1013.13
2018-06-05T09:49:15.882Z,1013.09
2018-06-05T09:50:16.679Z,1013.1
2018-06-05T09:51:16.181Z,1013.14
2018-06-05T09:52:16.077Z,1013.11
2018-06-05T09:53:16.121Z,1013.09
2018-06-05T09:54:15.972Z,1013.08
2018-06-05T09:55:16.037Z,1013.12
2018-06-05T09:56:16.390Z,1013.11
2018-06-05T09:57:16.121Z,1013.11
2018-06-05T09:58:16.691Z,1013.08
2018-06-05T09:59:16.724Z,1013.07
2018-06-05T10:00:16.086Z,1013.06
2018-06-05T10:01:16.524Z,1013.08
2018-06-05T10:02:15.968Z,1013.08
2018-06-05T10:03:16.175Z,1013.04
2018-06-05T10:04:16.364Z,1013.04
2018-06-05T10:05:15.794Z,1013.07
2018-06-05T10:06:15.981Z,1012.96
2018-06-05T10:07:16.153Z,1013.01
2018-06-05T10:08:16.197Z,1012.97
2018-06-05T10:09:16.273Z,1012.97
2018-06-05T10:10:16.445Z,1012.95
2018-06-05T10:11:15.914Z,1012.9
2018-06-05T10:12:16.027Z,1012.95
2018-06-05T10:13:15.970Z,1012.92
2018-06-05T10:14:16.105Z,1012.97
2018-06-05T10:15:16.294Z,1012.97
2018-06-05T10:16:16.099Z,1012.9
2018-06-05T10:17:16.267Z,1012.92
2018-06-05T10:18:16.217Z,1012.92
2018-06-05T10:19:15.870Z,1012.94
2018-06-05T10:20:16.509Z,1012.92
2018-06-05T10:21:16.632Z,1012.97
2018-06-05T10:22:15.859Z,1012.94
2018-06-05T10:23:16.095Z,1012.87
2018-06-05T10:24:15.827Z,1012.9
2018-06-05T10:25:16.078Z,1012.87
2018-06-05T10:26:16.148Z,1012.85
2018-06-05T10:27:16.534Z,1012.83
2018-06-05T10:28:15.893Z,1012.85
2018-06-05T10:29:15.939Z,1012.82
2018-06-05T10:30:16.001Z,1012.82
2018-06-05T10:31:15.918Z,1012.8
2018-06-05T10:32:16.202Z,1012.79
2018-06-05T10:33:15.988Z,1012.83
2018-06-05T10:34:15.932Z,1012.8
2018-06-05T10:35:16.033Z,1012.77
2018-06-05T10:36:16.083Z,1012.8
2018-06-05T10:37:16.189Z,1012.84
2018-06-05T10:38:16.077Z,1012.77
2018-06-05T10:39:16.043Z,1012.75
2018-06-05T10:40:16.071Z,1012.74
2018-06-05T10:41:16.027Z,1012.69
2018-06-05T10:42:15.898Z,1012.75
2018-06-05T10:43:15.809Z,1012.74
2018-06-05T10:44:16.479Z,1012.75
2018-06-05T10:45:16.080Z,1012.72
2018-06-05T10:46:16.158Z,1012.67
2018-06-05T10:47:16.027Z,1012.69
2018-06-05T10:48:16.013Z,1012.66
2018-06-05T10:49:15.938Z,1012.69
2018-06-05T10:50:15.883Z,1012.7
2018-06-05T10:51:16.036Z,1012.71
2018-06-05T10:52:15.821Z,1012.71
2018-06-05T10:53:16.045Z,1012.65
2018-06-05T10:54:16.080Z,1012.67
2018-06-05T10:55:15.952Z,1012.65
2018-06-05T10:56:16.047Z,1012.7
2018-06-05T10:57:15.836Z,1012.69
2018-06-05T10:58:16.052Z,1012.71
2018-06-05T10:59:16.376Z,1012.68
2018-06-05T11:00:15.824Z,1012.72
2018-06-05T11:01:15.859Z,1012.72
2018-06-05T11:02:15.881Z,1012.76
2018-06-05T11:03:15.915Z,1012.73
2018-06-05T11:04:15.994Z,1012.7
2018-06-05T11:05:16.003Z,1012.69
2018-06-05T11:06:15.912Z,1012.71
2018-06-05T11:07:16.196Z,1012.7
2018-06-05T11:08:15.997Z,1012.65
2018-06-05T11:09:15.996Z,1012.71
2018-06-05T11:10:16.050Z,1012.67
2018-06-05T11:11:15.987Z,1012.65
2018-06-05T11:12:15.864Z,1012.62
2018-06-05T11:13:15.997Z,1012.62
2018-06-05T11:14:16.030Z,1012.6
2018-06-05T11:15:15.913Z,1012.61
2018-06-05T11:16:16.055Z,1012.6
2018-06-05T11:17:16.005Z,1012.54
2018-06-05T11:18:16.047Z,1012.51
2018-06-05T11:19:16.051Z,1012.53
2018-06-05T11:20:15.991Z,1012.54
2018-06-05T11:21:15.845Z,1012.52
2018-06-05T11:22:15.928Z,1012.5
2018-06-05T11:23:15.766Z,1012.5
2018-06-05T11:24:16.044Z,1012.47
2018-06-05T11:25:16.021Z,1012.46
2018-06-05T11:26:15.983Z,1012.44
2018-06-05T11:27:15.949Z,1012.42
2018-06-05T11:28:16.010Z,1012.41
2018-06-05T11:29:16.033Z,1012.38
2018-06-05T11:30:15.976Z,1012.44
2018-06-05T11:31:15.745Z,1012.49
2018-06-05T11:32:15.803Z,1012.5
2018-06-05T11:33:16.085Z,1012.44
2018-06-05T11:34:16.026Z,1012.44
2018-06-05T11:35:15.966Z,1012.43
2018-06-05T11:36:15.931Z,1012.43
2018-06-05T11:37:15.877Z,1012.45
2018-06-05T11:38:16.035Z,1012.46
2018-06-05T11:39:16.256Z,1012.4
2018-06-05T11:40:15.833Z,1012.39
2018-06-05T11:41:15.894Z,1012.4
2018-06-05T11:42:15.855Z,1012.42
2018-06-05T11:43:15.900Z,1012.4
2018-06-05T11:44:15.867Z,1012.4
2018-06-05T11:45:15.930Z,1012.38
2018-06-05T11:46:15.876Z,1012.36
2018-06-05T11:47:16.004Z,1012.35
2018-06-05T11:48:15.918Z,1012.32
2018-06-05T11:49:16.067Z,1012.32
2018-06-05T11:50:15.875Z,1012.31
2018-06-05T11:51:16.004Z,1012.3
2018-06-05T11:52:15.801Z,1012.3
2018-06-05T11:53:15.993Z,1012.29
2018-06-05T11:54:15.931Z,1012.31
2018-06-05T11:55:15.895Z,1012.27
2018-06-05T11:56:15.905Z,1012.28
2018-06-05T11:57:16.187Z,1012.29
2018-06-05T11:58:16.228Z,1012.22
2018-06-05T11:59:15.829Z,1012.28
2018-06-05T12:00:15.974Z,1012.28
2018-06-05T12:01:15.802Z,1012.25
2018-06-05T12:02:15.989Z,1012.25
2018-06-05T12:03:15.874Z,1012.25
2018-06-05T12:04:16.094Z,1012.22
2018-06-05T12:05:15.876Z,1012.2
2018-06-05T12:06:15.870Z,1012.2
2018-06-05T12:07:15.920Z,1012.2
2018-06-05T12:08:15.915Z,1012.16